createdAt,value
2022-11-14T00:01:49.614Z,82.40
2022-11-14T00:04:17.740Z,82.30
2022-11-14T00:06:45.894Z,82.20
2022-11-14T00:09:14.056Z,82.20
2022-11-14T00:11:42.230Z,82.30
2022-11-14T00:14:12.516Z,82.30
2022-11-14T00:16:40.678Z,82.30
2022-11-14T00:19:08.784Z,82.50
2022-11-14T00:21:36.901Z,82.60
2022-11-14T00:24:05.676Z,82.40
2022-11-14T00:26:33.827Z,82.50
2022-11-14T00:29:01.963Z,82.40
2022-11-14T00:31:31.554Z,82.50
2022-11-14T00:33:59.735Z,82.50
2022-11-14T00:36:27.883Z,82.70
2022-11-14T00:38:56.111Z,82.80
2022-11-14T00:41:24.618Z,82.70
2022-11-14T00:43:52.766Z,82.70
2022-11-14T00:46:20.915Z,82.70
2022-11-14T00:48:50.494Z,82.70
2022-11-14T00:51:18.657Z,82.70
2022-11-14T00:53:46.876Z,82.60
2022-11-14T00:56:14.958Z,82.60
2022-11-14T00:58:43.215Z,82.50
2022-11-14T01:01:11.412Z,82.50
2022-11-14T01:03:39.584Z,82.50
2022-11-14T01:06:13.862Z,82.60
2022-11-14T01:08:41.988Z,82.70
2022-11-14T01:11:12.011Z,82.60
2022-11-14T01:13:40.998Z,82.70
2022-11-14T01:16:09.632Z,82.70
2022-11-14T01:18:38.971Z,82.70
2022-11-14T01:21:11.152Z,82.70
2022-11-14T01:23:39.632Z,82.60
2022-11-14T01:26:10.060Z,82.60
2022-11-14T01:28:38.671Z,82.60
2022-11-14T01:31:13.117Z,82.60
2022-11-14T01:33:41.285Z,82.50
2022-11-14T01:36:11.840Z,82.60
2022-11-14T01:38:40.102Z,82.60
2022-11-14T01:41:08.728Z,82.50
2022-11-14T01:43:38.996Z,82.90
2022-11-14T01:46:08.742Z,82.60
2022-11-14T01:48:42.461Z,82.60
2022-11-14T01:51:19.581Z,82.70
2022-11-14T01:53:50.914Z,82.80
2022-11-14T01:56:23.887Z,82.90
2022-11-14T01:58:55.895Z,82.90
2022-11-14T02:01:25.927Z,82.90
2022-11-14T02:03:57.099Z,82.90
2022-11-14T02:06:29.072Z,83.00
2022-11-14T02:08:59.219Z,83.00
2022-11-14T02:11:31.616Z,83.10
2022-11-14T02:14:00.351Z,83.10
2022-11-14T02:16:29.125Z,83.10
2022-11-14T02:18:57.291Z,83.10
2022-11-14T02:21:26.768Z,83.20
2022-11-14T02:23:54.922Z,83.20
2022-11-14T02:26:23.819Z,83.20
2022-11-14T02:28:52.357Z,83.10
2022-11-14T02:31:20.577Z,83.30
2022-11-14T02:33:48.667Z,83.30
2022-11-14T02:36:16.824Z,83.20
2022-11-14T02:38:46.328Z,83.20
2022-11-14T02:41:14.564Z,83.20
2022-11-14T02:43:42.683Z,83.20
2022-11-14T02:46:11.351Z,83.20
2022-11-14T02:48:39.466Z,83.20
2022-11-14T02:51:07.718Z,83.20
2022-11-14T02:53:35.874Z,83.20
2022-11-14T02:56:05.924Z,83.40
2022-11-14T02:58:34.047Z,83.20
2022-11-14T03:01:22.274Z,83.40
2022-11-14T03:03:50.336Z,83.60
2022-11-14T03:06:18.488Z,83.60
2022-11-14T03:08:46.595Z,83.50
2022-11-14T03:11:16.111Z,83.50
2022-11-14T03:13:44.227Z,83.50
2022-11-14T03:16:14.329Z,83.50
2022-11-14T03:18:42.575Z,83.50
2022-11-14T03:21:13.329Z,83.60
2022-11-14T03:23:41.568Z,83.60
2022-11-14T03:26:11.692Z,83.50
2022-11-14T03:28:42.263Z,83.50
2022-11-14T03:31:12.837Z,83.50
2022-11-14T03:33:41.275Z,83.50
2022-11-14T03:36:10.149Z,83.40
2022-11-14T03:38:38.356Z,83.50
2022-11-14T03:41:06.797Z,83.60
2022-11-14T03:43:35.603Z,83.60
2022-11-14T03:46:06.176Z,83.60
2022-11-14T03:48:34.255Z,83.50
2022-11-14T03:51:02.392Z,83.50
2022-11-14T03:53:30.657Z,83.60
2022-11-14T03:55:58.880Z,83.30
2022-11-14T03:58:27.357Z,83.60
2022-11-14T04:00:56.575Z,83.40
2022-11-14T04:03:29.339Z,83.50
2022-11-14T04:05:57.903Z,83.30
2022-11-14T04:08:26.033Z,83.60
2022-11-14T04:10:54.176Z,83.50
2022-11-14T04:13:22.326Z,83.40
2022-11-14T04:15:56.977Z,83.40
2022-11-14T04:18:25.215Z,83.50
2022-11-14T04:20:54.809Z,83.50
2022-11-14T04:23:23.260Z,83.20
2022-11-14T04:25:51.381Z,83.60
2022-11-14T04:28:19.530Z,83.50
2022-11-14T04:30:47.690Z,83.60
2022-11-14T04:33:15.861Z,83.50
2022-11-14T04:35:43.998Z,83.60
2022-11-14T04:38:13.498Z,83.60
2022-11-14T04:40:41.605Z,83.50
2022-11-14T04:43:09.958Z,83.70
2022-11-14T04:45:38.076Z,83.60
2022-11-14T04:48:06.557Z,83.50
2022-11-14T04:50:34.716Z,83.60
2022-11-14T04:53:02.803Z,83.60
2022-11-14T04:55:32.320Z,83.60
2022-11-14T04:58:00.814Z,83.70
2022-11-14T05:00:29.006Z,83.60
2022-11-14T05:02:59.345Z,83.70
2022-11-14T05:05:27.529Z,83.80
2022-11-14T05:07:56.033Z,83.80
2022-11-14T05:10:24.174Z,84.00
2022-11-14T05:12:56.151Z,83.90
2022-11-14T05:15:24.575Z,83.90
2022-11-14T05:17:52.749Z,83.90
2022-11-14T05:20:20.938Z,84.00
2022-11-14T05:22:49.053Z,83.90
2022-11-14T05:25:17.282Z,83.90
2022-11-14T05:27:45.514Z,84.10
2022-11-14T05:30:15.929Z,84.10
2022-11-14T05:32:44.725Z,84.00
2022-11-14T05:35:13.080Z,84.00
2022-11-14T05:37:41.296Z,84.00
2022-11-14T05:40:10.479Z,84.00
2022-11-14T05:42:38.635Z,84.10
2022-11-14T05:45:07.969Z,84.00
2022-11-14T05:47:37.465Z,84.00
2022-11-14T05:50:06.289Z,84.10
2022-11-14T05:52:34.458Z,84.00
2022-11-14T05:55:02.711Z,84.10
2022-11-14T05:57:32.241Z,84.10
2022-11-14T06:00:00.374Z,84.10
2022-11-14T06:02:28.535Z,84.10
2022-11-14T06:04:58.069Z,84.00
2022-11-14T06:07:26.277Z,83.90
2022-11-14T06:09:54.458Z,84.10
2022-11-14T06:12:22.598Z,84.00
2022-11-14T06:14:50.772Z,84.10
2022-11-14T06:17:18.895Z,84.10
2022-11-14T06:19:47.108Z,84.20
2022-11-14T06:22:16.630Z,84.30
2022-11-14T06:24:45.218Z,84.20
2022-11-14T06:27:13.324Z,84.10
2022-11-14T06:29:41.506Z,84.50
2022-11-14T06:32:09.617Z,84.40
2022-11-14T06:34:37.806Z,84.60
2022-11-14T06:37:06.311Z,84.60
2022-11-14T06:39:35.844Z,84.50
2022-11-14T06:42:04.080Z,84.60
2022-11-14T06:44:32.191Z,84.70
2022-11-14T06:47:02.569Z,84.60
2022-11-14T06:49:34.277Z,84.50
2022-11-14T06:52:06.671Z,84.50
2022-11-14T06:54:36.291Z,84.40
2022-11-14T06:57:04.468Z,84.60
2022-11-14T06:59:32.602Z,84.60
2022-11-14T07:02:00.999Z,84.60
2022-11-14T07:04:29.235Z,84.40
2022-11-14T07:06:57.375Z,84.60
2022-11-14T07:09:25.597Z,84.60
2022-11-14T07:11:55.091Z,84.60
2022-11-14T07:14:23.231Z,84.60
2022-11-14T07:16:51.504Z,84.70
2022-11-14T07:29:53.592Z,84.60
2022-11-14T07:32:21.755Z,82.90
2022-11-14T07:34:49.907Z,82.50
2022-11-14T07:37:18.262Z,81.90
2022-11-14T07:39:47.153Z,81.20
2022-11-14T07:42:15.253Z,80.70
2022-11-14T07:44:43.580Z,80.30
2022-11-14T07:47:13.043Z,79.90
2022-11-14T07:49:41.218Z,79.40
2022-11-14T07:52:09.316Z,79.20
2022-11-14T07:54:38.480Z,78.80
2022-11-14T07:57:06.627Z,78.30
2022-11-14T07:59:34.824Z,77.90
2022-11-14T08:02:02.947Z,77.90
2022-11-14T08:04:32.450Z,77.70
2022-11-14T08:07:03.635Z,77.40
2022-11-14T08:09:31.870Z,77.40
2022-11-14T08:12:00.009Z,77.00
2022-11-14T08:14:28.282Z,77.00
2022-11-14T08:16:56.371Z,76.60
2022-11-14T08:19:24.533Z,76.40
2022-11-14T08:21:54.065Z,76.10
2022-11-14T08:24:22.524Z,76.00
2022-11-14T08:26:50.639Z,75.60
2022-11-14T08:29:18.838Z,75.60
2022-11-14T08:31:47.238Z,75.20
2022-11-14T08:34:15.400Z,75.50
2022-11-14T08:36:43.686Z,75.40
2022-11-14T08:39:13.237Z,75.30
2022-11-14T08:41:41.949Z,74.80
2022-11-14T08:44:10.252Z,74.60
2022-11-14T08:46:38.514Z,74.50
2022-11-14T08:49:06.781Z,74.10
2022-11-14T08:51:36.525Z,74.10
2022-11-14T08:54:05.094Z,74.20
2022-11-14T08:56:34.783Z,74.10
2022-11-14T08:59:04.890Z,74.30
2022-11-14T09:01:33.312Z,74.10
2022-11-14T09:04:01.934Z,73.80
2022-11-14T09:06:30.376Z,73.50
2022-11-14T09:08:59.408Z,73.30
2022-11-14T09:11:27.602Z,73.50
2022-11-14T09:13:57.088Z,73.40
2022-11-14T09:16:25.250Z,73.30
2022-11-14T09:18:53.534Z,73.10
2022-11-14T09:21:21.666Z,72.90
2022-11-14T09:23:50.053Z,73.00
2022-11-14T09:26:19.592Z,72.80
2022-11-14T09:28:47.756Z,72.20
2022-11-14T09:31:17.311Z,72.10
2022-11-14T09:33:45.444Z,72.00
2022-11-14T09:36:15.988Z,71.90
2022-11-14T09:38:44.985Z,71.70
2022-11-14T09:41:25.550Z,71.80
2022-11-14T09:44:27.688Z,71.70
2022-11-14T09:46:59.347Z,71.70
2022-11-14T09:49:34.095Z,71.70
2022-11-14T09:52:10.776Z,71.70
2022-11-14T09:54:47.240Z,71.40
2022-11-14T09:57:17.905Z,71.30
2022-11-14T09:59:46.395Z,71.20
2022-11-14T10:02:29.849Z,70.90
2022-11-14T10:05:13.668Z,71.00
2022-11-14T10:07:56.324Z,70.80
2022-11-14T10:10:39.592Z,70.60
2022-11-14T10:13:18.736Z,70.70
2022-11-14T10:15:53.262Z,70.40
2022-11-14T10:18:38.179Z,70.70
2022-11-14T10:21:18.652Z,70.10
2022-11-14T10:23:57.299Z,70.20
2022-11-14T10:26:30.217Z,70.60
2022-11-14T10:29:20.880Z,70.70
2022-11-14T10:31:55.179Z,70.80
2022-11-14T10:34:32.333Z,70.80
2022-11-14T10:37:07.678Z,70.90
2022-11-14T10:39:40.776Z,71.00
2022-11-14T10:42:15.679Z,70.80
2022-11-14T10:44:50.635Z,70.90
2022-11-14T10:47:22.715Z,71.00
2022-11-14T10:49:56.041Z,71.10
2022-11-14T10:52:33.918Z,71.00
2022-11-14T10:55:07.881Z,71.00
2022-11-14T10:57:36.355Z,71.00
2022-11-14T11:00:12.466Z,71.00
2022-11-14T11:02:52.448Z,70.90
2022-11-14T11:05:25.031Z,71.00
2022-11-14T11:08:36.302Z,71.10
2022-11-14T11:11:18.105Z,71.10
2022-11-14T11:13:54.011Z,70.80
2022-11-14T11:16:24.161Z,70.70
2022-11-14T11:18:52.560Z,70.70
2022-11-14T11:21:23.852Z,70.50
2022-11-14T11:23:53.920Z,70.50
2022-11-14T11:26:24.433Z,70.40
2022-11-14T11:29:08.927Z,70.30
2022-11-14T11:32:00.769Z,70.00
2022-11-14T11:34:32.431Z,70.00
2022-11-14T11:37:06.804Z,69.90
2022-11-14T11:39:38.749Z,69.70
2022-11-14T11:42:11.194Z,69.60
2022-11-14T11:44:44.587Z,69.30
2022-11-14T11:47:17.325Z,69.20
2022-11-14T11:49:53.414Z,69.10
2022-11-14T11:52:33.252Z,68.90
2022-11-14T11:55:06.359Z,68.80
2022-11-14T11:57:39.936Z,68.50
2022-11-14T12:00:15.587Z,68.40
2022-11-14T12:02:50.109Z,68.20
2022-11-14T12:05:27.790Z,68.10
2022-11-14T12:08:04.349Z,67.90
2022-11-14T12:10:36.990Z,67.70
2022-11-14T12:13:50.217Z,67.60
2022-11-14T12:16:34.812Z,67.30
2022-11-14T12:19:32.586Z,67.00
2022-11-14T12:22:18.025Z,67.00
2022-11-14T12:25:17.640Z,66.80
2022-11-14T12:28:04.425Z,66.70
2022-11-14T12:30:33.953Z,66.60
2022-11-14T12:33:05.761Z,66.10
2022-11-14T12:35:35.475Z,66.00
2022-11-14T12:38:06.120Z,66.00
2022-11-14T12:40:38.898Z,65.80
2022-11-14T12:43:35.793Z,65.60
2022-11-14T12:46:08.504Z,65.60
2022-11-14T12:48:39.257Z,65.50
2022-11-14T12:51:23.863Z,65.40
2022-11-14T12:53:52.611Z,65.40
2022-11-14T12:57:01.764Z,65.20
2022-11-14T12:59:48.582Z,65.50
2022-11-14T13:02:51.895Z,65.40
2022-11-14T13:05:31.982Z,65.20
2022-11-14T13:08:16.764Z,65.00
2022-11-14T13:10:44.866Z,65.00
2022-11-14T13:13:33.554Z,64.90
2022-11-14T13:16:20.698Z,64.50
2022-11-14T13:19:14.834Z,64.70
2022-11-14T13:22:21.308Z,64.60
2022-11-14T13:25:20.939Z,64.60
2022-11-14T13:28:07.128Z,64.70
2022-11-14T13:31:19.290Z,64.70
2022-11-14T13:33:49.930Z,64.70
2022-11-14T13:36:31.823Z,64.60
2022-11-14T13:39:24.818Z,64.40
2022-11-14T13:42:17.449Z,64.20
2022-11-14T13:45:22.910Z,64.20
2022-11-14T13:48:23.331Z,64.10
2022-11-14T13:50:54.262Z,63.50
2022-11-14T13:53:25.894Z,63.80
2022-11-14T13:56:01.269Z,63.80
2022-11-14T13:58:59.325Z,63.70
2022-11-14T14:01:49.291Z,63.60
2022-11-14T14:04:32.288Z,63.70
2022-11-14T14:07:12.577Z,63.90
2022-11-14T14:09:51.008Z,63.80
2022-11-14T14:12:34.846Z,63.80
2022-11-14T14:15:12.323Z,63.40
2022-11-14T14:17:50.453Z,63.40
2022-11-14T14:20:33.301Z,63.30
2022-11-14T14:23:10.138Z,63.20
2022-11-14T14:25:48.655Z,63.00
2022-11-14T14:28:26.109Z,63.20
2022-11-14T14:31:10.701Z,63.20
2022-11-14T14:33:43.904Z,63.30
2022-11-14T14:36:25.777Z,63.40
2022-11-14T14:39:16.318Z,63.50
2022-11-14T14:41:44.710Z,63.40
2022-11-14T14:44:22.931Z,63.90
2022-11-14T14:46:51.569Z,64.00
2022-11-14T14:49:23.114Z,64.10
2022-11-14T14:51:58.072Z,64.10
2022-11-14T14:54:29.713Z,64.40
2022-11-14T14:57:00.428Z,64.90
2022-11-14T14:59:30.479Z,65.20
2022-11-14T15:01:59.511Z,65.70
2022-11-14T15:04:29.421Z,66.20
2022-11-14T15:06:59.059Z,66.70
2022-11-14T15:09:29.735Z,67.30
2022-11-14T15:12:01.434Z,67.60
2022-11-14T15:14:32.367Z,68.00
2022-11-14T15:17:01.214Z,68.30
2022-11-14T15:19:38.966Z,68.30
2022-11-14T15:22:24.519Z,68.30
2022-11-14T15:25:20.401Z,68.30
2022-11-14T15:27:51.504Z,68.30
2022-11-14T15:30:25.377Z,68.30
2022-11-14T15:32:55.837Z,68.40
2022-11-14T15:35:30.871Z,68.30
2022-11-14T15:38:36.941Z,68.60
2022-11-14T15:41:16.912Z,69.30
2022-11-14T15:43:50.657Z,69.60
2022-11-14T15:46:47.984Z,69.80
2022-11-14T15:49:23.130Z,70.10
2022-11-14T15:51:55.221Z,70.30
2022-11-14T15:54:33.346Z,70.40
2022-11-14T15:57:08.266Z,70.60
2022-11-14T15:59:36.547Z,70.60
2022-11-14T16:02:11.922Z,70.70
2022-11-14T16:04:45.966Z,70.70
2022-11-14T16:07:17.374Z,70.80
2022-11-14T16:09:47.199Z,70.70
2022-11-14T16:12:15.554Z,70.50
2022-11-14T16:14:43.845Z,70.30
2022-11-14T16:17:14.975Z,70.60
2022-11-14T16:19:43.757Z,70.80
2022-11-14T16:22:14.394Z,70.90
2022-11-14T16:24:42.585Z,71.10
2022-11-14T16:27:12.115Z,71.00
2022-11-14T16:29:40.275Z,71.10
2022-11-14T16:32:11.377Z,71.00
2022-11-14T16:34:39.541Z,71.10
2022-11-14T16:37:07.615Z,71.00
2022-11-14T16:39:35.766Z,70.90
2022-11-14T16:42:04.074Z,70.90
2022-11-14T16:44:40.409Z,70.80
2022-11-14T16:47:13.687Z,70.50
2022-11-14T16:49:41.809Z,70.20
2022-11-14T16:52:12.978Z,69.90
2022-11-14T16:54:41.100Z,69.90
2022-11-14T16:57:09.325Z,69.70
2022-11-14T16:59:38.877Z,69.60
2022-11-14T17:02:07.214Z,69.50
2022-11-14T17:04:35.428Z,69.40
2022-11-14T17:07:03.613Z,69.40
2022-11-14T17:09:31.859Z,69.30
2022-11-14T17:11:59.960Z,69.20
2022-11-14T17:14:28.104Z,69.00
2022-11-14T17:17:05.153Z,69.00
2022-11-14T17:19:33.588Z,69.20
2022-11-14T17:22:01.723Z,69.30
2022-11-14T17:24:31.506Z,69.40
2022-11-14T17:27:00.022Z,69.70
2022-11-14T17:29:28.241Z,69.90
2022-11-14T17:31:57.894Z,70.20
2022-11-14T17:34:26.016Z,69.80
2022-11-14T17:36:54.294Z,69.40
2022-11-14T17:39:22.576Z,69.40
2022-11-14T17:41:50.808Z,69.40
2022-11-14T17:44:19.076Z,69.00
2022-11-14T17:46:48.303Z,68.90
2022-11-14T17:49:17.749Z,68.90
2022-11-14T17:51:46.009Z,69.00
2022-11-14T17:54:14.119Z,68.80
2022-11-14T17:56:47.505Z,68.30
2022-11-14T17:59:19.574Z,68.30
2022-11-14T18:01:48.165Z,68.20
2022-11-14T18:04:18.019Z,68.20
2022-11-14T18:06:46.185Z,68.10
2022-11-14T18:09:18.601Z,68.00
2022-11-14T18:11:46.949Z,68.10
2022-11-14T18:14:15.592Z,68.10
2022-11-14T18:17:11.028Z,68.20
2022-11-14T18:19:34.273Z,68.30
2022-11-14T18:22:04.693Z,68.30
2022-11-14T18:24:33.767Z,68.40
2022-11-14T18:27:02.297Z,68.40
2022-11-14T18:29:31.277Z,68.20
2022-11-14T18:32:00.051Z,68.20
2022-11-14T18:34:28.839Z,68.30
2022-11-14T18:36:58.665Z,68.20
2022-11-14T18:39:29.077Z,68.30
2022-11-14T18:42:00.024Z,68.30
2022-11-14T18:44:42.843Z,68.20
2022-11-14T18:47:11.585Z,67.90
2022-11-14T18:49:40.075Z,68.00
2022-11-14T18:52:17.267Z,67.80
2022-11-14T18:54:46.413Z,67.70
2022-11-14T18:57:15.066Z,67.70
2022-11-14T18:59:44.580Z,67.60
2022-11-14T19:02:14.253Z,67.60
2022-11-14T19:04:45.774Z,67.60
2022-11-14T19:07:16.567Z,67.40
2022-11-14T19:09:45.608Z,67.30
2022-11-14T19:12:23.964Z,67.20
2022-11-14T19:14:53.891Z,67.20
2022-11-14T19:17:22.701Z,67.00
2022-11-14T19:19:53.623Z,67.00
2022-11-14T19:22:24.629Z,67.00
2022-11-14T19:24:53.398Z,66.80
2022-11-14T19:27:23.577Z,66.90
2022-11-14T19:29:52.362Z,67.00
2022-11-14T19:32:20.943Z,67.20
2022-11-14T19:34:51.994Z,67.30
2022-11-14T19:37:28.896Z,67.60
2022-11-14T19:39:58.053Z,68.10
2022-11-14T19:42:38.038Z,68.50
2022-11-14T19:45:08.622Z,68.80
2022-11-14T19:47:37.039Z,68.90
2022-11-14T19:50:10.244Z,69.10
2022-11-14T19:52:40.690Z,69.20
2022-11-14T19:55:09.577Z,69.40
2022-11-14T19:57:38.132Z,69.50
2022-11-14T20:00:08.395Z,69.60
2022-11-14T20:02:39.678Z,69.50
2022-11-14T20:05:09.747Z,69.60
2022-11-14T20:07:39.817Z,69.80
2022-11-14T20:10:11.823Z,69.70
2022-11-14T20:12:43.370Z,69.90
2022-11-14T20:15:21.105Z,69.80
2022-11-14T20:17:49.937Z,69.90
2022-11-14T20:20:19.361Z,70.10
2022-11-14T20:22:49.521Z,70.10
2022-11-14T20:25:18.618Z,70.10
2022-11-14T20:27:51.907Z,70.20
2022-11-14T20:30:23.408Z,70.30
2022-11-14T20:32:54.612Z,70.40
2022-11-14T20:35:23.386Z,70.60
2022-11-14T20:37:53.880Z,70.60
2022-11-14T20:40:22.652Z,70.80
2022-11-14T20:42:53.632Z,70.90
2022-11-14T20:45:31.859Z,71.10
2022-11-14T20:48:02.468Z,71.30
2022-11-14T20:50:31.986Z,71.50
2022-11-14T20:53:07.141Z,71.50
2022-11-14T20:55:36.925Z,71.60
2022-11-14T20:58:09.436Z,71.70
2022-11-14T21:00:45.003Z,71.80
2022-11-14T21:03:16.538Z,72.00
2022-11-14T21:05:48.329Z,72.10
2022-11-14T21:08:19.022Z,72.10
2022-11-14T21:10:51.645Z,72.10
2022-11-14T21:13:39.205Z,72.50
2022-11-14T21:16:11.431Z,72.50
2022-11-14T21:18:45.195Z,72.60
2022-11-14T21:21:18.990Z,72.50
2022-11-14T21:23:49.782Z,72.80
2022-11-14T21:26:20.387Z,72.90
2022-11-14T21:28:50.910Z,73.10
2022-11-14T21:31:22.485Z,73.10
2022-11-14T21:33:52.160Z,73.30
2022-11-14T21:39:15.899Z,73.50
2022-11-14T21:41:50.065Z,73.60
2022-11-14T21:44:21.649Z,73.80
2022-11-14T21:46:51.415Z,73.90
2022-11-14T21:49:25.960Z,74.00
2022-11-14T21:51:54.168Z,74.10
2022-11-14T21:54:23.704Z,74.20
2022-11-14T21:56:53.454Z,74.30
2022-11-14T21:59:25.743Z,74.40
2022-11-14T22:02:11.761Z,74.50
2022-11-14T22:04:40.184Z,74.60
2022-11-14T22:07:09.609Z,74.60
2022-11-14T22:09:45.548Z,74.90
2022-11-14T22:12:14.946Z,75.10
2022-11-14T22:14:43.122Z,75.10
2022-11-14T22:17:11.337Z,75.10
2022-11-14T22:19:43.784Z,75.10
2022-11-14T22:22:12.036Z,75.10
2022-11-14T22:24:43.472Z,75.20
2022-11-14T22:27:11.711Z,75.20
2022-11-14T22:29:39.902Z,75.20
2022-11-14T22:32:08.092Z,75.20
2022-11-14T22:34:45.301Z,75.40
2022-11-14T22:37:13.476Z,75.40
2022-11-14T22:39:42.965Z,75.50
2022-11-14T22:42:13.326Z,75.50
2022-11-14T22:44:41.433Z,75.50
2022-11-14T22:47:09.541Z,75.50
2022-11-14T22:49:46.370Z,75.40
2022-11-14T22:52:15.671Z,75.60
2022-11-14T22:54:45.251Z,75.50
2022-11-14T22:57:13.413Z,75.50
2022-11-14T22:59:55.081Z,75.60
2022-11-14T23:02:27.638Z,75.80
2022-11-14T23:05:01.243Z,75.90
2022-11-14T23:07:29.643Z,75.90
2022-11-14T23:09:59.347Z,76.00
2022-11-14T23:12:31.696Z,76.10
2022-11-14T23:15:07.389Z,76.00
2022-11-14T23:17:35.680Z,76.10
2022-11-14T23:20:13.570Z,76.10
2022-11-14T23:22:44.379Z,76.20
2022-11-14T23:25:18.693Z,76.20
2022-11-14T23:27:51.360Z,76.40
2022-11-14T23:30:21.025Z,76.40
2022-11-14T23:32:49.214Z,76.30
2022-11-14T23:35:17.595Z,76.40
2022-11-14T23:37:45.749Z,76.50
2022-11-14T23:40:15.446Z,76.60
2022-11-14T23:42:45.513Z,76.60
2022-11-14T23:45:14.632Z,76.80
2022-11-14T23:47:46.113Z,76.80
2022-11-14T23:50:14.310Z,76.80
2022-11-14T23:52:42.546Z,76.90
2022-11-14T23:55:10.899Z,76.90
2022-11-14T23:57:40.363Z,77.00
